Perley, Minnesota
Current Conditions -  °F | °C
As of 9:07 PM on Sunday 23 Nov 2014 (Local Time) from KFAR Reporting Station
Light Snow Light Snow  
Wind Chill:   Ceiling: 900
Heat Index: 20°   Visibility: 4mi
Dew Point: 17°   Wind: 23mph
Humidity: 89%   Direction: 320°NW
Pressure: 29.57"   Gusts: 28mph
Location:  47.18°N, 96.81°W
Report Text: KFAR 240307Z 32020G24KT 4SM -SN BR OVC009 M07/M08 A2957 RMK AO2 SNB04 CIG 007V012 P0000 I1000 T10671083
Loading
Personal Weather Stations






























Interactive Weather Map New forecast layout! Learn more

10-Day Weather Forecast

Advertisements
Track Severe Weather on mobile